createdAt,value
2018-06-09T00:01:24.876Z,24.26
2018-06-09T00:03:51.173Z,24.22
2018-06-09T00:06:17.522Z,24.23
2018-06-09T00:08:43.828Z,24.20
2018-06-09T00:11:10.128Z,24.12
2018-06-09T00:13:36.440Z,24.10
2018-06-09T00:16:02.741Z,24.11
2018-06-09T00:18:29.045Z,24.13
2018-06-09T00:20:55.349Z,24.11
2018-06-09T00:23:21.658Z,24.11
2018-06-09T00:25:47.966Z,24.09
2018-06-09T00:28:14.275Z,24.07
2018-06-09T00:30:40.581Z,24.09
2018-06-09T00:33:06.933Z,24.08
2018-06-09T00:35:33.232Z,24.10
2018-06-09T00:37:59.542Z,24.07
2018-06-09T00:40:25.854Z,24.06
2018-06-09T00:42:52.156Z,24.05
2018-06-09T00:45:18.467Z,24.03
2018-06-09T00:47:44.773Z,24.01
2018-06-09T00:50:11.078Z,23.99
2018-06-09T00:52:37.387Z,23.99
2018-06-09T00:55:03.695Z,23.98
2018-06-09T00:57:30.005Z,23.98
2018-06-09T00:59:56.313Z,23.94
2018-06-09T01:02:22.634Z,23.90
2018-06-09T01:04:48.946Z,23.83
2018-06-09T01:07:15.250Z,23.82
2018-06-09T01:09:41.559Z,23.86
2018-06-09T01:12:07.865Z,23.87
2018-06-09T01:14:34.174Z,23.84
2018-06-09T01:17:00.490Z,23.85
2018-06-09T01:19:26.792Z,23.85
2018-06-09T01:21:53.096Z,23.83
2018-06-09T01:24:19.412Z,23.83
2018-06-09T01:26:45.718Z,23.80
2018-06-09T01:29:12.032Z,23.78
2018-06-09T01:31:38.330Z,23.75
2018-06-09T01:34:04.643Z,23.76
2018-06-09T01:36:30.950Z,23.76
2018-06-09T01:38:57.249Z,23.75
2018-06-09T01:41:23.641Z,23.76
2018-06-09T01:43:49.944Z,23.73
2018-06-09T01:46:16.245Z,23.75
2018-06-09T01:48:42.550Z,23.74
2018-06-09T01:51:08.852Z,23.75
2018-06-09T01:53:35.162Z,23.77
2018-06-09T01:56:01.470Z,23.78
2018-06-09T01:58:27.772Z,23.82
2018-06-09T02:00:54.081Z,23.87
2018-06-09T02:03:20.386Z,23.85
2018-06-09T02:05:46.694Z,23.83
2018-06-09T02:08:12.998Z,23.83
2018-06-09T02:10:39.310Z,23.82
2018-06-09T02:13:05.630Z,23.80
2018-06-09T02:15:31.938Z,23.79
2018-06-09T02:17:58.240Z,23.77
2018-06-09T02:20:24.561Z,23.74
2018-06-09T02:22:50.853Z,23.68
2018-06-09T02:25:17.164Z,23.59
2018-06-09T02:27:43.463Z,23.54
2018-06-09T02:30:09.818Z,23.53
2018-06-09T02:32:36.121Z,23.55
2018-06-09T02:35:02.426Z,23.49
2018-06-09T02:37:28.733Z,23.47
2018-06-09T02:39:55.051Z,23.45
2018-06-09T02:42:21.362Z,23.44
2018-06-09T02:44:47.722Z,23.41
2018-06-09T02:47:14.039Z,23.35
2018-06-09T02:49:40.344Z,23.29
2018-06-09T02:52:06.649Z,23.30
2018-06-09T02:54:32.993Z,23.28
2018-06-09T02:56:59.298Z,23.27
2018-06-09T02:59:25.607Z,23.24
2018-06-09T03:01:51.913Z,23.25
2018-06-09T03:04:18.218Z,23.25
2018-06-09T03:06:44.527Z,23.23
2018-06-09T03:09:10.839Z,23.18
2018-06-09T03:11:37.148Z,23.17
2018-06-09T03:14:03.449Z,23.16
2018-06-09T03:16:29.763Z,23.16
2018-06-09T03:18:56.064Z,23.11
2018-06-09T03:21:22.374Z,23.09
2018-06-09T03:23:48.685Z,23.06
2018-06-09T03:26:14.985Z,23.08
2018-06-09T03:28:41.296Z,23.07
2018-06-09T03:31:07.601Z,23.07
2018-06-09T03:33:33.907Z,23.09
2018-06-09T03:36:00.214Z,23.10
2018-06-09T03:38:26.519Z,23.09
2018-06-09T03:40:52.865Z,23.07
2018-06-09T03:43:19.235Z,23.07
2018-06-09T03:45:45.472Z,23.09
2018-06-09T03:48:11.782Z,23.06
2018-06-09T03:50:38.097Z,23.07
2018-06-09T03:53:04.478Z,23.01
2018-06-09T03:55:30.786Z,23.01
2018-06-09T03:57:57.098Z,23.05
2018-06-09T04:00:23.452Z,23.11
2018-06-09T04:02:49.756Z,23.14
2018-06-09T04:05:16.096Z,23.16
2018-06-09T04:07:42.402Z,23.16
2018-06-09T04:10:08.710Z,23.15
2018-06-09T04:12:35.012Z,23.15
2018-06-09T04:15:01.332Z,23.17
2018-06-09T04:17:27.642Z,23.18
2018-06-09T04:19:53.965Z,23.22
2018-06-09T04:22:20.269Z,23.25
2018-06-09T04:24:46.589Z,23.23
2018-06-09T04:27:12.890Z,23.24
2018-06-09T04:29:39.195Z,23.23
2018-06-09T04:32:05.503Z,23.29
2018-06-09T04:34:31.821Z,23.32
2018-06-09T04:36:58.126Z,23.31
2018-06-09T04:39:24.439Z,23.31
2018-06-09T04:41:50.799Z,23.33
2018-06-09T04:44:17.100Z,23.33
2018-06-09T04:46:43.452Z,23.32
2018-06-09T04:49:09.757Z,23.32
2018-06-09T04:51:36.067Z,23.37
2018-06-09T04:54:02.370Z,23.42
2018-06-09T04:56:28.673Z,23.46
2018-06-09T04:58:54.982Z,23.46
2018-06-09T05:01:21.287Z,23.45
2018-06-09T05:03:47.594Z,23.44
2018-06-09T05:06:13.901Z,23.47
2018-06-09T05:08:40.206Z,23.48
2018-06-09T05:11:06.517Z,23.46
2018-06-09T05:13:32.822Z,23.44
2018-06-09T05:15:59.129Z,23.45
2018-06-09T05:18:25.477Z,23.44
2018-06-09T05:20:51.732Z,23.45
2018-06-09T05:23:18.037Z,23.50
2018-06-09T05:25:44.341Z,23.53
2018-06-09T05:28:10.652Z,23.61
2018-06-09T05:30:36.950Z,23.63
2018-06-09T05:33:03.259Z,23.66
2018-06-09T05:35:29.566Z,23.65
2018-06-09T05:37:55.873Z,23.60
2018-06-09T05:40:22.191Z,23.62
2018-06-09T05:42:48.495Z,23.67
2018-06-09T05:45:14.797Z,23.66
2018-06-09T05:47:41.108Z,23.68
2018-06-09T05:50:07.454Z,23.65
2018-06-09T05:52:33.766Z,23.60
2018-06-09T05:55:00.075Z,23.56
2018-06-09T05:57:26.380Z,23.64
2018-06-09T05:59:52.686Z,23.66
2018-06-09T06:02:19.040Z,23.60
2018-06-09T06:04:45.340Z,23.53
2018-06-09T06:07:11.687Z,23.59
2018-06-09T06:09:37.996Z,23.63
2018-06-09T06:12:04.317Z,23.71
2018-06-09T06:14:30.634Z,23.84
2018-06-09T06:16:56.983Z,23.98
2018-06-09T06:19:23.284Z,24.09
2018-06-09T06:21:49.576Z,24.16
2018-06-09T06:24:15.868Z,24.25
2018-06-09T06:26:42.199Z,24.35
2018-06-09T06:29:08.497Z,24.44
2018-06-09T06:31:34.785Z,24.59
2018-06-09T06:34:01.074Z,24.64
2018-06-09T06:36:27.399Z,24.76
2018-06-09T06:38:53.686Z,24.93
2018-06-09T06:41:19.988Z,25.02
2018-06-09T06:43:46.297Z,25.10
2018-06-09T06:46:12.588Z,25.19
2018-06-09T06:48:38.875Z,25.29
2018-06-09T06:51:05.162Z,25.31
2018-06-09T06:53:31.456Z,25.40
2018-06-09T06:55:57.750Z,25.54
2018-06-09T06:58:24.047Z,25.66
2018-06-09T07:00:50.330Z,25.93
2018-06-09T07:03:16.625Z,25.95
2018-06-09T07:05:42.913Z,25.94
2018-06-09T07:08:09.210Z,26.08
2018-06-09T07:10:35.494Z,26.14
2018-06-09T07:13:01.790Z,26.13
2018-06-09T07:15:28.092Z,26.06
2018-06-09T07:17:54.382Z,26.19
2018-06-09T07:20:20.676Z,26.30
2018-06-09T07:22:46.977Z,26.43
2018-06-09T07:25:13.315Z,26.55
2018-06-09T07:27:39.602Z,26.58
2018-06-09T07:30:05.929Z,26.64
2018-06-09T07:32:32.218Z,26.69
2018-06-09T07:34:58.510Z,26.57
2018-06-09T07:37:24.806Z,26.43
2018-06-09T07:39:51.102Z,26.38
2018-06-09T07:42:17.443Z,26.46
2018-06-09T07:44:43.735Z,26.46
2018-06-09T07:47:10.035Z,26.52
2018-06-09T07:49:36.325Z,26.58
2018-06-09T07:52:02.621Z,26.72
2018-06-09T07:54:28.908Z,26.84
2018-06-09T07:56:55.212Z,26.80
2018-06-09T07:59:21.510Z,26.76
2018-06-09T08:01:47.806Z,26.72
2018-06-09T08:04:14.110Z,26.76
2018-06-09T08:06:40.402Z,26.82
2018-06-09T08:09:06.728Z,26.78
2018-06-09T08:11:33.021Z,26.79
2018-06-09T08:13:59.314Z,26.91
2018-06-09T08:16:25.596Z,26.91
2018-06-09T08:18:51.884Z,27.02
2018-06-09T08:21:18.211Z,27.01
2018-06-09T08:23:44.498Z,26.96
2018-06-09T08:26:10.823Z,26.91
2018-06-09T08:28:37.117Z,26.78
2018-06-09T08:31:03.412Z,26.80
2018-06-09T08:33:29.707Z,26.80
2018-06-09T08:35:56.052Z,26.84
2018-06-09T08:38:22.344Z,26.96
2018-06-09T08:40:48.639Z,27.17
2018-06-09T08:43:14.963Z,27.44
2018-06-09T08:45:41.251Z,27.76
2018-06-09T08:48:07.556Z,28.06
2018-06-09T08:50:33.852Z,28.02
2018-06-09T08:53:00.150Z,28.04
2018-06-09T08:55:26.438Z,27.95
2018-06-09T08:57:52.734Z,27.10
2018-06-09T09:00:19.024Z,26.32
2018-06-09T09:02:45.332Z,25.83
2018-06-09T09:05:11.618Z,25.43
2018-06-09T09:07:37.913Z,25.40
2018-06-09T09:10:04.207Z,25.37
2018-06-09T09:12:30.500Z,25.35
2018-06-09T09:14:56.791Z,25.28
2018-06-09T09:17:23.079Z,25.31
2018-06-09T09:19:49.380Z,25.25
2018-06-09T09:22:15.670Z,25.26
2018-06-09T09:24:42.030Z,25.29
2018-06-09T09:27:08.331Z,25.31
2018-06-09T09:29:34.624Z,25.27
2018-06-09T09:32:00.933Z,25.45
2018-06-09T09:34:27.228Z,25.46
2018-06-09T09:36:53.536Z,25.61
2018-06-09T09:39:19.845Z,25.77
2018-06-09T09:41:46.150Z,25.92
2018-06-09T09:44:12.489Z,26.11
2018-06-09T09:46:38.786Z,26.40
2018-06-09T09:49:05.081Z,26.64
2018-06-09T09:51:31.367Z,26.88
2018-06-09T09:53:57.705Z,26.97
2018-06-09T09:56:24.055Z,26.99
2018-06-09T09:58:50.366Z,27.12
2018-06-09T10:01:16.654Z,27.29
2018-06-09T10:03:42.955Z,27.45
2018-06-09T10:06:09.245Z,27.56
2018-06-09T10:08:35.536Z,27.66
2018-06-09T10:11:01.837Z,27.74
2018-06-09T10:13:28.137Z,27.84
2018-06-09T10:15:54.493Z,27.91
2018-06-09T10:18:20.780Z,28.06
2018-06-09T10:20:47.072Z,28.17
2018-06-09T10:23:13.362Z,28.27
2018-06-09T10:25:39.676Z,28.40
2018-06-09T10:28:06.296Z,28.52
2018-06-09T10:30:32.558Z,28.66
2018-06-09T10:32:58.858Z,28.74
2018-06-09T10:35:25.163Z,28.86
2018-06-09T10:37:51.452Z,28.97
2018-06-09T10:40:17.744Z,29.02
2018-06-09T10:42:44.043Z,29.08
2018-06-09T10:45:10.362Z,29.11
2018-06-09T10:47:36.670Z,29.12
2018-06-09T10:50:02.962Z,29.13
2018-06-09T10:52:29.251Z,29.16
2018-06-09T10:54:55.544Z,29.20
2018-06-09T10:57:21.840Z,29.26
2018-06-09T10:59:48.134Z,29.34
2018-06-09T11:02:14.464Z,29.37
2018-06-09T11:04:40.761Z,29.38
2018-06-09T11:07:07.056Z,29.39
2018-06-09T11:09:33.351Z,29.38
2018-06-09T11:11:59.689Z,29.38
2018-06-09T11:14:25.974Z,29.29
2018-06-09T11:16:52.269Z,29.14
2018-06-09T11:19:18.560Z,28.98
2018-06-09T11:21:44.871Z,28.91
2018-06-09T11:24:11.159Z,28.85
2018-06-09T11:26:37.452Z,28.82
2018-06-09T11:29:03.739Z,28.80
2018-06-09T11:31:30.032Z,28.74
2018-06-09T11:33:56.321Z,28.70
2018-06-09T11:36:22.611Z,28.67
2018-06-09T11:38:48.904Z,28.66
2018-06-09T11:41:15.197Z,28.63
2018-06-09T11:43:41.486Z,28.59
2018-06-09T11:46:07.825Z,28.55
2018-06-09T11:48:34.072Z,28.49
2018-06-09T11:51:00.360Z,28.45
2018-06-09T11:53:26.666Z,28.42
2018-06-09T11:55:52.959Z,28.37
2018-06-09T11:58:19.295Z,28.33
2018-06-09T12:00:45.584Z,28.26
2018-06-09T12:03:11.903Z,28.21
2018-06-09T12:05:38.210Z,28.15
2018-06-09T12:08:04.479Z,28.11
2018-06-09T12:10:30.770Z,28.07
2018-06-09T12:12:57.068Z,28.05
2018-06-09T12:15:23.360Z,27.99
2018-06-09T12:17:49.649Z,27.97
2018-06-09T12:20:15.980Z,27.95
2018-06-09T12:22:42.279Z,27.94
2018-06-09T12:25:08.564Z,27.90
2018-06-09T12:27:34.858Z,27.91
2018-06-09T12:30:01.154Z,27.89
2018-06-09T12:32:27.471Z,27.83
2018-06-09T12:34:53.731Z,27.77
2018-06-09T12:37:20.019Z,27.69
2018-06-09T12:39:46.305Z,27.58
2018-06-09T12:42:12.595Z,27.41
2018-06-09T12:44:38.888Z,27.23
2018-06-09T12:47:05.180Z,27.06
2018-06-09T12:49:31.475Z,26.89
2018-06-09T12:51:57.765Z,26.77
2018-06-09T12:54:24.055Z,26.69
2018-06-09T12:56:50.353Z,26.59
2018-06-09T12:59:16.670Z,26.54
2018-06-09T13:01:42.960Z,26.54
2018-06-09T13:04:09.272Z,26.50
2018-06-09T13:06:35.555Z,26.49
2018-06-09T13:09:01.848Z,26.41
2018-06-09T13:11:28.140Z,26.39
2018-06-09T13:13:54.432Z,26.38
2018-06-09T13:16:20.788Z,26.35
2018-06-09T13:18:47.076Z,26.35
2018-06-09T13:21:13.410Z,26.39
2018-06-09T13:23:39.699Z,26.33
2018-06-09T13:26:05.999Z,26.27
2018-06-09T13:28:32.290Z,26.27
2018-06-09T13:30:58.589Z,26.27
2018-06-09T13:33:24.885Z,26.29
2018-06-09T13:35:51.224Z,26.33
2018-06-09T13:38:17.550Z,26.36
2018-06-09T13:40:43.888Z,26.35
2018-06-09T13:43:10.173Z,26.26
2018-06-09T13:45:36.462Z,26.21
2018-06-09T13:48:02.755Z,26.26
2018-06-09T13:50:29.044Z,26.31
2018-06-09T13:52:55.332Z,26.35
2018-06-09T13:55:21.631Z,26.43
2018-06-09T13:57:47.914Z,26.49
2018-06-09T14:00:14.208Z,26.50
2018-06-09T14:02:40.495Z,26.47
2018-06-09T14:05:06.842Z,26.49
2018-06-09T14:07:33.135Z,26.48
2018-06-09T14:09:59.432Z,26.47
2018-06-09T14:12:25.729Z,26.53
2018-06-09T14:14:52.017Z,26.57
2018-06-09T14:17:18.307Z,26.60
2018-06-09T14:19:44.626Z,26.62
2018-06-09T14:22:10.962Z,26.66
2018-06-09T14:24:37.265Z,26.67
2018-06-09T14:27:03.556Z,26.67
2018-06-09T14:29:29.855Z,26.66
2018-06-09T14:31:56.150Z,26.65
2018-06-09T14:34:22.456Z,26.68
2018-06-09T14:36:48.749Z,26.68
2018-06-09T14:39:15.039Z,26.62
2018-06-09T14:41:41.338Z,26.61
2018-06-09T14:44:07.634Z,26.61
2018-06-09T14:46:33.930Z,26.62
2018-06-09T14:49:00.225Z,26.60
2018-06-09T14:51:26.516Z,26.57
2018-06-09T14:53:52.886Z,26.55
2018-06-09T14:56:19.103Z,26.53
2018-06-09T14:58:45.437Z,26.51
2018-06-09T15:01:11.731Z,26.47
2018-06-09T15:03:38.019Z,26.45
2018-06-09T15:06:04.349Z,26.42
2018-06-09T15:08:30.647Z,26.38
2018-06-09T15:10:56.944Z,26.34
2018-06-09T15:13:23.238Z,26.31
2018-06-09T15:15:49.533Z,26.31
2018-06-09T15:18:15.830Z,26.31
2018-06-09T15:20:42.164Z,26.27
2018-06-09T15:23:08.453Z,26.24
2018-06-09T15:25:34.750Z,26.25
2018-06-09T15:28:01.046Z,26.26
2018-06-09T15:30:27.336Z,26.20
2018-06-09T15:32:53.629Z,26.15
2018-06-09T15:35:19.916Z,26.08
2018-06-09T15:37:46.214Z,26.01
2018-06-09T15:40:12.509Z,25.97
2018-06-09T15:42:39.794Z,25.91
2018-06-09T15:45:06.084Z,25.82
2018-06-09T15:47:32.383Z,25.76
2018-06-09T15:49:58.676Z,25.70
2018-06-09T15:52:24.972Z,25.65
2018-06-09T15:54:51.305Z,25.59
2018-06-09T15:57:17.611Z,25.56
2018-06-09T15:59:43.901Z,25.52
2018-06-09T16:02:10.190Z,25.53
2018-06-09T16:04:36.527Z,25.51
2018-06-09T16:07:02.815Z,25.46
2018-06-09T16:09:29.156Z,25.42
2018-06-09T16:11:55.444Z,25.39
2018-06-09T16:14:21.740Z,25.35
2018-06-09T16:16:48.039Z,25.33
2018-06-09T16:19:14.327Z,25.34
2018-06-09T16:21:40.624Z,25.33
2018-06-09T16:24:06.902Z,25.33
2018-06-09T16:26:33.196Z,25.28
2018-06-09T16:28:59.504Z,25.21
2018-06-09T16:31:25.828Z,25.16
2018-06-09T16:33:52.128Z,25.11
2018-06-09T16:36:18.413Z,25.04
2018-06-09T16:38:44.708Z,24.99
2018-06-09T16:41:11.006Z,24.92
2018-06-09T16:43:37.299Z,24.88
2018-06-09T16:46:03.593Z,24.86
2018-06-09T16:48:29.883Z,24.91
2018-06-09T16:50:56.178Z,24.94
2018-06-09T16:53:22.470Z,24.96
2018-06-09T16:55:48.759Z,24.94
2018-06-09T16:58:15.052Z,24.94
2018-06-09T17:00:41.348Z,24.97
2018-06-09T17:03:07.636Z,24.97
2018-06-09T17:05:33.934Z,24.96
2018-06-09T17:08:00.244Z,24.96
2018-06-09T17:10:26.530Z,24.94
2018-06-09T17:12:52.859Z,24.92
2018-06-09T17:15:19.153Z,24.91
2018-06-09T17:17:45.441Z,24.93
2018-06-09T17:20:11.732Z,24.94
2018-06-09T17:22:38.054Z,24.87
2018-06-09T17:25:04.308Z,24.85
2018-06-09T17:27:30.604Z,24.83
2018-06-09T17:29:56.896Z,24.80
2018-06-09T17:32:23.185Z,24.79
2018-06-09T17:34:49.476Z,24.79
2018-06-09T17:37:15.763Z,24.81
2018-06-09T17:39:42.087Z,24.81
2018-06-09T17:42:08.376Z,24.76
2018-06-09T17:44:34.663Z,24.73
2018-06-09T17:47:00.955Z,24.73
2018-06-09T17:49:27.257Z,24.74
2018-06-09T17:51:53.542Z,24.73
2018-06-09T17:54:19.894Z,24.74
2018-06-09T17:56:46.189Z,24.73
2018-06-09T17:59:12.484Z,24.71
2018-06-09T18:01:38.785Z,24.70
2018-06-09T18:04:05.082Z,24.67
2018-06-09T18:06:31.375Z,24.68
2018-06-09T18:08:57.668Z,24.69
2018-06-09T18:11:23.955Z,24.62
2018-06-09T18:13:50.254Z,24.59
2018-06-09T18:16:16.551Z,24.56
2018-06-09T18:18:42.842Z,24.57
2018-06-09T18:21:09.140Z,24.59
2018-06-09T18:23:35.438Z,24.59
2018-06-09T18:26:01.731Z,24.58
2018-06-09T18:28:28.065Z,24.59
2018-06-09T18:30:54.362Z,24.56
2018-06-09T18:33:20.725Z,24.56
2018-06-09T18:35:47.021Z,24.51
2018-06-09T18:38:13.351Z,24.51
2018-06-09T18:40:39.718Z,24.52
2018-06-09T18:43:06.004Z,24.52
2018-06-09T18:45:32.327Z,24.49
2018-06-09T18:47:58.633Z,24.47
2018-06-09T18:50:24.963Z,24.45
2018-06-09T18:52:51.255Z,24.43
2018-06-09T18:55:17.568Z,24.42
2018-06-09T18:57:43.869Z,24.40
2018-06-09T19:00:10.169Z,24.37
2018-06-09T19:02:36.470Z,24.36
2018-06-09T19:05:02.756Z,24.39
2018-06-09T19:07:29.043Z,24.39
2018-06-09T19:09:55.372Z,24.39
2018-06-09T19:12:21.665Z,24.37
2018-06-09T19:14:47.950Z,24.33
2018-06-09T19:17:14.259Z,24.33
2018-06-09T19:19:40.551Z,24.30
2018-06-09T19:22:06.991Z,24.28
2018-06-09T19:24:33.177Z,24.27
2018-06-09T19:26:59.472Z,24.24
2018-06-09T19:29:25.823Z,24.22
2018-06-09T19:31:52.114Z,24.25
2018-06-09T19:34:18.412Z,24.22
2018-06-09T19:36:44.687Z,24.23
2018-06-09T19:39:10.980Z,24.28
2018-06-09T19:41:37.281Z,24.33
2018-06-09T19:44:03.569Z,24.40
2018-06-09T19:46:29.873Z,24.39
2018-06-09T19:48:56.173Z,24.36
2018-06-09T19:51:22.472Z,24.34
2018-06-09T19:53:48.775Z,24.31
2018-06-09T19:56:15.074Z,24.28
2018-06-09T19:58:41.390Z,24.30
2018-06-09T20:01:07.683Z,24.32
2018-06-09T20:03:33.979Z,24.35
2018-06-09T20:06:00.313Z,24.34
2018-06-09T20:08:26.604Z,24.33
2018-06-09T20:10:52.936Z,24.32
2018-06-09T20:13:19.234Z,24.30
2018-06-09T20:15:45.529Z,24.21
2018-06-09T20:18:11.828Z,24.14
2018-06-09T20:20:38.126Z,24.09
2018-06-09T20:23:04.429Z,24.13
2018-06-09T20:25:30.716Z,24.17
2018-06-09T20:27:57.012Z,24.16
2018-06-09T20:30:23.350Z,24.18
2018-06-09T20:32:49.641Z,24.23
2018-06-09T20:35:15.939Z,24.26
2018-06-09T20:37:42.235Z,24.18
2018-06-09T20:40:08.526Z,24.14
2018-06-09T20:42:34.821Z,24.05
2018-06-09T20:45:01.112Z,23.92
2018-06-09T20:47:27.450Z,23.86
2018-06-09T20:49:53.744Z,23.90
2018-06-09T20:52:20.030Z,23.99
2018-06-09T20:54:46.314Z,24.22
2018-06-09T20:57:12.610Z,24.48
2018-06-09T20:59:38.948Z,24.66
2018-06-09T21:02:05.264Z,24.80
2018-06-09T21:04:31.556Z,24.91
2018-06-09T21:06:57.842Z,24.97
2018-06-09T21:09:24.157Z,24.95
2018-06-09T21:11:50.424Z,24.94
2018-06-09T21:14:16.722Z,24.91
2018-06-09T21:16:43.052Z,24.90
2018-06-09T21:19:09.353Z,24.91
2018-06-09T21:21:35.692Z,24.67
2018-06-09T21:24:01.985Z,24.14
2018-06-09T21:26:28.333Z,23.90
2018-06-09T21:28:54.601Z,23.77
2018-06-09T21:31:20.906Z,23.80
2018-06-09T21:33:47.208Z,23.81
2018-06-09T21:36:13.546Z,23.77
2018-06-09T21:38:39.836Z,23.69
2018-06-09T21:41:06.178Z,23.61
2018-06-09T21:43:32.473Z,23.59
2018-06-09T21:45:58.767Z,23.60
2018-06-09T21:48:25.092Z,23.62
2018-06-09T21:50:51.392Z,23.66
2018-06-09T21:53:17.690Z,23.69
2018-06-09T21:55:43.991Z,23.73
2018-06-09T21:58:10.284Z,23.72
2018-06-09T22:00:36.580Z,23.72
2018-06-09T22:03:02.876Z,23.64
2018-06-09T22:05:29.168Z,23.61
2018-06-09T22:07:55.474Z,23.60
2018-06-09T22:10:21.770Z,23.63
2018-06-09T22:12:48.061Z,23.63
2018-06-09T22:15:14.349Z,23.61
2018-06-09T22:17:40.659Z,23.59
2018-06-09T22:20:06.953Z,23.57
2018-06-09T22:22:33.246Z,23.58
2018-06-09T22:24:59.535Z,23.55
2018-06-09T22:27:25.818Z,23.55
2018-06-09T22:29:52.120Z,23.52
2018-06-09T22:32:18.411Z,23.50
2018-06-09T22:34:44.702Z,23.46
2018-06-09T22:37:10.996Z,23.43
2018-06-09T22:39:37.281Z,23.39
2018-06-09T22:42:03.571Z,23.40
2018-06-09T22:44:29.903Z,23.38
2018-06-09T22:46:56.187Z,23.39
2018-06-09T22:49:22.475Z,23.37
2018-06-09T22:51:48.765Z,23.32
2018-06-09T22:54:15.063Z,23.31
2018-06-09T22:56:41.358Z,23.25
2018-06-09T22:59:07.658Z,23.23
2018-06-09T23:01:33.953Z,23.21
2018-06-09T23:04:00.242Z,23.22
2018-06-09T23:06:26.537Z,23.20
2018-06-09T23:08:52.829Z,23.19
2018-06-09T23:11:19.123Z,23.19
2018-06-09T23:13:45.424Z,23.20
2018-06-09T23:16:11.716Z,23.19
2018-06-09T23:18:38.015Z,23.19
2018-06-09T23:21:04.306Z,23.20
2018-06-09T23:23:30.597Z,23.21
2018-06-09T23:25:56.890Z,23.21
2018-06-09T23:28:23.193Z,23.21
2018-06-09T23:30:49.490Z,23.21
2018-06-09T23:33:15.778Z,23.19
2018-06-09T23:35:42.075Z,23.15
2018-06-09T23:38:08.358Z,23.13
2018-06-09T23:40:34.692Z,23.13
2018-06-09T23:43:00.985Z,23.12
2018-06-09T23:45:27.282Z,23.10
2018-06-09T23:47:53.571Z,23.12
2018-06-09T23:50:19.870Z,23.10
2018-06-09T23:52:46.207Z,23.10
2018-06-09T23:55:12.500Z,23.11
2018-06-09T23:57:38.798Z,23.08
